Time;durP1;ratioP1;P1;durP2;ratioP2;P2;SDS_P1;SDS_P2;PMS_P1;PMS_P2;Temp;Humidity;BMP_temperature;BMP_pressure;BME280_temperature;BME280_humidity;BME280_pressure;Samples;Min_cycle;Max_cycle;Signal;HPM_P1;HPM_P2
2021/12/22 00:00:28;;;;;;;26.60;16.13;;;;;;;;;;4909413;28;22772;-82
2021/12/22 00:02:54;;;;;;;28.33;16.60;;;;;;;;;;4905067;29;20585;-83
2021/12/22 00:05:26;;;;;;;22.63;16.03;;;;;;;;;;4913506;28;20054;-83
2021/12/22 00:07:58;;;;;;;24.98;15.73;;;;;;;;;;4935885;28;20039;-83
2021/12/22 00:10:24;;;;;;;28.47;16.23;;;;;;;;;;4931766;28;20053;-83
2021/12/22 00:12:54;;;;;;;27.83;16.83;;;;;;;;;;4929641;29;20052;-82
2021/12/22 00:15:22;;;;;;;30.30;17.73;;;;;;;;;;4891480;28;20039;-83
2021/12/22 00:17:49;;;;;;;26.02;15.95;;;;;;;;;;4915012;28;20071;-83
2021/12/22 00:20:17;;;;;;;26.37;16.27;;;;;;;;;;4913836;28;20059;-83
2021/12/22 00:22:44;;;;;;;28.48;16.58;;;;;;;;;;4919921;28;20443;-83
2021/12/22 00:25:11;;;;;;;25.03;15.77;;;;;;;;;;4897109;28;20074;-83
2021/12/22 00:27:38;;;;;;;27.00;17.10;;;;;;;;;;4915554;28;20047;-83
2021/12/22 00:30:08;;;;;;;25.40;16.87;;;;;;;;;;4917064;28;20415;-83
2021/12/22 00:32:36;;;;;;;25.40;15.97;;;;;;;;;;4915519;28;20061;-83
2021/12/22 00:35:02;;;;;;;;;;;;;;;;;;4935040;28;20047;-83
2021/12/22 00:37:38;;;;;;;27.63;15.97;;;;;;;;;;4935741;28;19949;-83
2021/12/22 00:40:04;;;;;;;23.73;15.57;;;;;;;;;;4917765;28;20047;-83
2021/12/22 00:42:31;;;;;;;26.63;16.77;;;;;;;;;;4890971;28;20054;-83
2021/12/22 00:44:58;;;;;;;26.47;16.23;;;;;;;;;;4917950;28;20043;-82
2021/12/22 00:47:26;;;;;;;27.10;16.70;;;;;;;;;;4897615;28;20048;-83
2021/12/22 00:49:54;;;;;;;30.08;14.73;;;;;;;;;;4926319;28;20119;-84
2021/12/22 00:52:21;;;;;;;25.38;16.08;;;;;;;;;;4899116;28;20053;-83
2021/12/22 00:54:48;;;;;;;22.67;14.87;;;;;;;;;;4935385;28;20501;-83
2021/12/22 00:57:17;;;;;;;27.20;15.43;;;;;;;;;;4913691;28;20067;-83
2021/12/22 00:59:44;;;;;;;26.33;16.00;;;;;;;;;;4916475;28;20082;-82
2021/12/22 01:02:11;;;;;;;28.30;15.47;;;;;;;;;;4928966;28;20051;-82
2021/12/22 01:04:38;;;;;;;25.17;14.73;;;;;;;;;;4929688;28;20439;-82
2021/12/22 01:07:06;;;;;;;26.97;16.17;;;;;;;;;;4928585;28;20039;-82
2021/12/22 01:09:33;;;;;;;22.23;14.73;;;;;;;;;;4931398;28;20043;-82
2021/12/22 01:12:00;;;;;;;25.80;15.17;;;;;;;;;;4929695;28;22542;-82
2021/12/22 01:14:28;;;;;;;20.60;14.40;;;;;;;;;;4909841;28;21847;-82
2021/12/22 01:17:00;;;;;;;23.47;15.03;;;;;;;;;;4916269;28;20066;-83
2021/12/22 01:19:58;;;;;;;23.63;14.67;;;;;;;;;;4911401;28;23039;-82
2021/12/22 01:25:12;;;;;;;23.27;14.90;;;;;;;;;;4903614;28;20084;-82
2021/12/22 01:27:44;;;;;;;24.50;15.53;;;;;;;;;;4915882;28;20036;-83
2021/12/22 01:30:18;;;;;;;23.97;13.87;;;;;;;;;;4895161;28;20094;-83
2021/12/22 01:33:02;;;;;;;22.60;14.00;;;;;;;;;;4913722;28;20043;-82
2021/12/22 01:35:29;;;;;;;21.17;14.38;;;;;;;;;;4908961;28;20129;-83
2021/12/22 01:37:57;;;;;;;23.83;14.67;;;;;;;;;;4902945;28;20391;-83
2021/12/22 01:40:23;;;;;;;22.88;14.25;;;;;;;;;;4911784;28;20058;-83
2021/12/22 01:42:50;;;;;;;21.13;13.93;;;;;;;;;;4904404;29;20055;-83
2021/12/22 01:51:36;;;;;;;25.33;14.02;;;;;;;;;;4892780;28;20040;-84
2021/12/22 01:54:08;;;;;;;27.53;14.60;;;;;;;;;;4916761;28;20058;-83
2021/12/22 01:56:42;;;;;;;24.67;14.03;;;;;;;;;;4900505;28;20046;-83
2021/12/22 01:59:10;;;;;;;25.88;14.77;;;;;;;;;;4896149;28;20318;-83
2021/12/22 02:01:36;;;;;;;22.63;13.93;;;;;;;;;;4929178;28;20065;-83
2021/12/22 02:04:04;;;;;;;22.30;13.73;;;;;;;;;;4923563;28;20047;-84
2021/12/22 02:06:31;;;;;;;21.58;13.77;;;;;;;;;;4894036;28;20051;-83
2021/12/22 02:09:20;;;;;;;19.57;13.03;;;;;;;;;;4892364;28;20054;-82
2021/12/22 02:11:47;;;;;;;23.57;14.47;;;;;;;;;;4891602;29;20130;-83
2021/12/22 02:14:13;;;;;;;20.43;13.60;;;;;;;;;;4870978;28;20075;-82
2021/12/22 02:16:44;;;;;;;22.60;14.10;;;;;;;;;;4911814;29;20071;-83
2021/12/22 02:19:11;;;;;;;22.73;14.23;;;;;;;;;;4907506;29;20043;-82
2021/12/22 02:21:46;;;;;;;22.40;14.30;;;;;;;;;;4883136;29;20059;-83
2021/12/22 02:24:13;;;;;;;20.60;13.00;;;;;;;;;;4891683;29;20131;-83
2021/12/22 02:26:48;;;;;;;20.00;13.57;;;;;;;;;;4895197;29;20060;-84
2021/12/22 02:29:23;;;;;;;18.03;11.33;;;;;;;;;;4877241;29;20117;-83
2021/12/22 02:32:18;;;;;;;23.00;13.17;;;;;;;;;;4894824;29;20097;-84
2021/12/22 02:35:00;;;;;;;20.27;12.50;;;;;;;;;;4888004;29;20063;-84
2021/12/22 02:37:27;;;;;;;20.33;12.87;;;;;;;;;;4891640;29;20052;-84
2021/12/22 02:40:00;;;;;;;25.40;12.87;;;;;;;;;;4887977;28;20051;-84
2021/12/22 02:42:32;;;;;;;22.27;12.90;;;;;;;;;;4925718;28;20169;-84
2021/12/22 02:45:17;;;;;;;19.53;12.43;;;;;;;;;;4905692;28;20054;-84
2021/12/22 02:47:44;;;;;;;19.93;11.97;;;;;;;;;;4901374;28;20043;-84
2021/12/22 02:50:10;;;;;;;19.47;12.00;;;;;;;;;;4929801;28;20082;-84
2021/12/22 02:52:50;;;;;;;18.50;12.07;;;;;;;;;;4927913;28;20106;-84
2021/12/22 02:55:17;;;;;;;21.53;12.70;;;;;;;;;;4921504;28;20039;-84
2021/12/22 02:57:49;;;;;;;19.95;11.82;;;;;;;;;;4899635;29;20082;-83
2021/12/22 03:05:29;;;;;;;18.57;12.53;;;;;;;;;;4901138;28;20238;-83
2021/12/22 03:07:58;;;;;;;19.37;11.57;;;;;;;;;;4930326;28;20270;-84
2021/12/22 03:10:25;;;;;;;;;;;;;;;;;;4912354;28;20062;-84
2021/12/22 03:12:53;;;;;;;22.87;11.87;;;;;;;;;;4914059;28;19922;-83
2021/12/22 03:15:20;;;;;;;21.90;12.33;;;;;;;;;;4912456;28;20061;-82
2021/12/22 03:17:47;;;;;;;20.73;12.33;;;;;;;;;;4915201;28;20047;-83
2021/12/22 03:20:14;;;;;;;16.73;11.60;;;;;;;;;;4901659;28;20047;-83
2021/12/22 03:22:45;;;;;;;20.85;11.90;;;;;;;;;;4906129;28;20141;-83
2021/12/22 03:25:17;;;;;;;19.90;12.30;;;;;;;;;;4914939;28;20051;-84
2021/12/22 03:27:48;;;;;;;17.30;11.53;;;;;;;;;;4914902;28;20170;-83
2021/12/22 03:30:16;;;;;;;16.58;11.43;;;;;;;;;;4912459;28;20051;-83
2021/12/22 03:32:44;;;;;;;20.23;11.85;;;;;;;;;;4897458;28;20046;-84
2021/12/22 03:35:21;;;;;;;18.30;12.30;;;;;;;;;;4911765;28;20458;-84
2021/12/22 03:37:50;;;;;;;20.13;12.93;;;;;;;;;;4905541;28;21991;-83
2021/12/22 03:40:18;;;;;;;19.60;11.80;;;;;;;;;;4884465;28;20110;-83
2021/12/22 03:42:45;;;;;;;20.38;12.75;;;;;;;;;;4912468;28;20364;-84
2021/12/22 03:45:16;;;;;;;18.23;11.17;;;;;;;;;;4915633;28;21262;-85
2021/12/22 03:47:48;;;;;;;18.43;11.27;;;;;;;;;;4911133;28;20039;-84
2021/12/22 03:50:15;;;;;;;20.97;11.60;;;;;;;;;;4913452;28;20450;-84
2021/12/22 03:52:41;;;;;;;21.10;12.47;;;;;;;;;;4929820;28;20054;-84
2021/12/22 03:55:09;;;;;;;21.97;12.70;;;;;;;;;;4908267;28;20110;-84
2021/12/22 03:57:36;;;;;;;;;;;;;;;;;;4931198;28;20138;-84
2021/12/22 04:00:04;;;;;;;18.93;11.70;;;;;;;;;;4934353;28;19977;-84
2021/12/22 04:02:31;;;;;;;17.05;10.75;;;;;;;;;;4928077;28;20048;-85
2021/12/22 04:04:58;;;;;;;19.80;12.23;;;;;;;;;;4928012;28;20050;-84
2021/12/22 04:07:25;;;;;;;24.43;13.37;;;;;;;;;;4902893;28;20039;-84
2021/12/22 04:09:53;;;;;;;18.67;11.60;;;;;;;;;;4910599;28;20043;-84
2021/12/22 04:12:20;;;;;;;23.35;13.90;;;;;;;;;;4919366;28;20138;-84
2021/12/22 04:14:47;;;;;;;20.87;13.23;;;;;;;;;;4902438;28;20051;-84
2021/12/22 04:17:14;;;;;;;20.73;13.10;;;;;;;;;;4890102;28;20040;-83
2021/12/22 04:19:40;;;;;;;24.13;14.43;;;;;;;;;;4916545;28;20036;-84
2021/12/22 04:22:10;;;;;;;23.67;14.53;;;;;;;;;;4885107;28;20074;-83
2021/12/22 04:24:37;;;;;;;21.57;14.80;;;;;;;;;;4922564;28;20051;-84
2021/12/22 04:27:07;;;;;;;23.57;15.00;;;;;;;;;;4912050;28;20051;-83
2021/12/22 04:29:34;;;;;;;24.23;15.67;;;;;;;;;;4911246;29;20051;-83
2021/12/22 04:32:01;;;;;;;23.23;15.13;;;;;;;;;;4929683;28;20051;-84
2021/12/22 04:34:28;;;;;;;24.53;15.63;;;;;;;;;;4912156;28;21160;-84
2021/12/22 04:36:55;;;;;;;23.47;15.97;;;;;;;;;;4929327;28;20142;-84
2021/12/22 04:39:21;;;;;;;22.33;14.47;;;;;;;;;;4911350;28;20095;-84
2021/12/22 04:41:49;;;;;;;21.83;14.27;;;;;;;;;;4917291;28;20148;-83
2021/12/22 04:44:16;;;;;;;23.47;15.33;;;;;;;;;;4895449;28;20055;-84
2021/12/22 04:46:44;;;;;;;21.42;14.80;;;;;;;;;;4916269;28;20593;-84
2021/12/22 04:49:11;;;;;;;22.47;14.87;;;;;;;;;;4909866;28;20054;-82
2021/12/22 04:51:48;;;;;;;23.15;14.90;;;;;;;;;;4916952;28;20047;-83
2021/12/22 04:57:00;;;;;;;25.10;16.30;;;;;;;;;;4899745;28;20840;-83
2021/12/22 04:59:26;;;;;;;23.60;15.27;;;;;;;;;;4917806;28;20054;-83
2021/12/22 05:01:53;;;;;;;23.00;13.73;;;;;;;;;;4896599;29;20053;-84
2021/12/22 05:04:19;;;;;;;23.77;15.23;;;;;;;;;;4895941;28;20156;-83
2021/12/22 05:06:45;;;;;;;24.50;15.77;;;;;;;;;;4916276;29;20110;-84
2021/12/22 05:09:12;;;;;;;23.50;14.97;;;;;;;;;;4896122;28;20078;-83
2021/12/22 05:11:40;;;;;;;23.87;14.00;;;;;;;;;;4879242;28;20058;-84
2021/12/22 05:14:08;;;;;;;26.33;15.27;;;;;;;;;;4909497;28;20407;-83
2021/12/22 05:16:44;;;;;;;26.93;16.03;;;;;;;;;;4903141;29;20054;-82
2021/12/22 05:19:14;;;;;;;26.07;16.00;;;;;;;;;;4926082;28;20043;-83
2021/12/22 05:21:41;;;;;;;24.70;15.37;;;;;;;;;;4915420;28;20146;-84
2021/12/22 05:24:24;;;;;;;23.90;15.10;;;;;;;;;;4897415;28;20564;-82
2021/12/22 05:26:53;;;;;;;21.97;15.27;;;;;;;;;;4916032;28;20078;-86
2021/12/22 05:29:20;;;;;;;23.97;15.43;;;;;;;;;;4891811;28;20482;-84
2021/12/22 05:31:53;;;;;;;24.57;15.43;;;;;;;;;;4897363;28;20047;-85
2021/12/22 05:34:23;;;;;;;24.27;14.83;;;;;;;;;;4926728;28;20051;-84
2021/12/22 05:36:49;;;;;;;21.23;14.07;;;;;;;;;;4912868;28;20059;-84
2021/12/22 05:39:16;;;;;;;22.67;14.77;;;;;;;;;;4905073;28;20126;-84
2021/12/22 05:41:42;;;;;;;27.87;15.50;;;;;;;;;;4911010;28;20054;-84
2021/12/22 05:44:10;;;;;;;25.93;15.40;;;;;;;;;;4879657;28;20146;-84
2021/12/22 05:46:36;;;;;;;24.97;15.27;;;;;;;;;;4918118;29;20043;-84
2021/12/22 05:49:03;;;;;;;22.67;14.60;;;;;;;;;;4901810;29;20487;-85
2021/12/22 05:51:33;;;;;;;23.70;15.53;;;;;;;;;;4937819;28;20046;-84
2021/12/22 05:54:11;;;;;;;29.53;16.73;;;;;;;;;;4932491;28;20051;-83
2021/12/22 05:56:39;;;;;;;21.90;14.87;;;;;;;;;;4926730;28;20490;-84
2021/12/22 05:59:07;;;;;;;26.30;16.17;;;;;;;;;;4922718;28;20067;-84
2021/12/22 06:01:33;;;;;;;22.42;13.85;;;;;;;;;;4920728;28;20047;-82
2021/12/22 06:04:02;;;;;;;24.37;16.43;;;;;;;;;;4902616;28;20071;-83
2021/12/22 06:06:31;;;;;;;24.37;14.50;;;;;;;;;;4933707;28;20077;-83
2021/12/22 06:09:12;;;;;;;27.00;15.03;;;;;;;;;;4916839;28;20079;-81
2021/12/22 06:11:39;;;;;;;23.40;15.20;;;;;;;;;;4907139;28;20071;-81
2021/12/22 06:14:08;;;;;;;23.13;14.97;;;;;;;;;;4920697;28;20105;-79
2021/12/22 06:16:35;;;;;;;25.53;15.13;;;;;;;;;;4889738;29;20446;-81
2021/12/22 06:19:07;;;;;;;23.20;14.23;;;;;;;;;;4916563;28;20055;-82
2021/12/22 06:21:35;;;;;;;23.67;15.00;;;;;;;;;;4893579;28;20059;-85
2021/12/22 06:24:03;;;;;;;24.40;15.40;;;;;;;;;;4904542;29;20065;-86
2021/12/22 06:26:29;;;;;;;24.33;14.88;;;;;;;;;;4899243;28;20138;-84
2021/12/22 06:28:57;;;;;;;26.33;14.90;;;;;;;;;;4918945;28;20054;-85
2021/12/22 06:31:32;;;;;;;24.97;14.83;;;;;;;;;;4907221;28;20039;-86
2021/12/22 06:34:03;;;;;;;23.00;14.33;;;;;;;;;;4935255;28;20110;-87
2021/12/22 06:36:29;;;;;;;21.17;14.63;;;;;;;;;;4903943;28;20162;-87
2021/12/22 06:38:56;;;;;;;22.57;13.77;;;;;;;;;;4922395;28;20055;-85
2021/12/22 06:41:23;;;;;;;22.83;13.60;;;;;;;;;;4921405;28;20737;-84
2021/12/22 06:43:53;;;;;;;100.80;53.63;;;;;;;;;;4937223;28;20227;-86
2021/12/22 06:46:19;;;;;;;36.03;19.60;;;;;;;;;;4901336;28;20454;-85
2021/12/22 06:48:45;;;;;;;30.93;17.40;;;;;;;;;;4920978;28;20043;-85
2021/12/22 06:51:21;;;;;;;27.30;16.40;;;;;;;;;;4916903;28;20093;-85
2021/12/22 06:53:48;;;;;;;24.43;15.00;;;;;;;;;;4919591;28;20050;-85
2021/12/22 06:56:16;;;;;;;22.73;14.17;;;;;;;;;;4918508;28;20398;-84
2021/12/22 06:58:42;;;;;;;21.47;13.73;;;;;;;;;;4915941;29;20075;-85
2021/12/22 07:01:17;;;;;;;22.57;13.87;;;;;;;;;;4913544;28;20051;-85
2021/12/22 07:03:44;;;;;;;23.00;14.80;;;;;;;;;;4928687;28;20509;-80
2021/12/22 07:06:11;;;;;;;20.47;13.80;;;;;;;;;;4898963;28;20164;-80
2021/12/22 07:08:37;;;;;;;23.90;15.03;;;;;;;;;;4915984;28;20521;-80
2021/12/22 07:11:10;;;;;;;25.17;14.73;;;;;;;;;;4926539;28;20117;-78
2021/12/22 07:13:38;;;;;;;20.53;13.53;;;;;;;;;;4917972;28;20490;-80
2021/12/22 07:16:23;;;;;;;24.00;14.00;;;;;;;;;;4932184;28;20067;-80
2021/12/22 07:18:50;;;;;;;25.40;15.43;;;;;;;;;;4904644;28;20054;-79
2021/12/22 07:21:17;;;;;;;28.80;17.07;;;;;;;;;;4911693;28;20054;-80
2021/12/22 07:23:44;;;;;;;24.63;15.37;;;;;;;;;;4914630;28;20047;-80
2021/12/22 07:26:15;;;;;;;22.83;15.20;;;;;;;;;;4904580;28;20047;-80
2021/12/22 07:28:43;;;;;;;23.60;14.73;;;;;;;;;;4891962;28;20051;-79
2021/12/22 07:31:09;;;;;;;20.50;13.95;;;;;;;;;;4915709;28;20051;-79
2021/12/22 07:33:36;;;;;;;24.27;14.30;;;;;;;;;;4904049;29;20055;-79
2021/12/22 07:36:05;;;;;;;27.53;15.33;;;;;;;;;;4906309;28;20043;-79
2021/12/22 07:38:57;;;;;;;25.33;15.43;;;;;;;;;;4898316;29;20047;-79
2021/12/22 07:41:23;;;;;;;24.27;14.60;;;;;;;;;;4896094;29;20047;-79
2021/12/22 07:43:49;;;;;;;26.90;14.70;;;;;;;;;;4881684;29;20123;-80
2021/12/22 07:46:16;;;;;;;25.93;16.13;;;;;;;;;;4880991;29;20040;-79
2021/12/22 07:48:44;;;;;;;24.93;14.27;;;;;;;;;;4902827;29;20048;-80
2021/12/22 07:51:11;;;;;;;25.42;16.08;;;;;;;;;;4899952;29;20470;-79
2021/12/22 07:53:37;;;;;;;24.40;14.73;;;;;;;;;;4896999;29;20964;-79
2021/12/22 07:56:08;;;;;;;24.13;14.60;;;;;;;;;;4883088;29;20058;-79
2021/12/22 07:58:34;;;;;;;21.70;14.33;;;;;;;;;;4899911;29;20111;-79
2021/12/22 08:01:00;;;;;;;25.37;15.03;;;;;;;;;;4900681;29;20047;-79
2021/12/22 08:03:26;;;;;;;23.40;13.97;;;;;;;;;;4886630;29;20198;-79
2021/12/22 08:05:55;;;;;;;22.33;13.27;;;;;;;;;;4914089;28;20051;-79
2021/12/22 08:08:21;;;;;;;27.55;15.65;;;;;;;;;;4905623;29;20585;-79
2021/12/22 08:10:47;;;;;;;27.13;16.10;;;;;;;;;;4912248;28;20499;-79
2021/12/22 08:13:15;;;;;;;25.83;16.33;;;;;;;;;;4897525;28;20375;-78
2021/12/22 08:15:42;;;;;;;;;;;;;;;;;;4931945;28;20557;-79
2021/12/22 08:18:09;;;;;;;23.03;14.27;;;;;;;;;;4927812;28;19964;-79
2021/12/22 08:20:38;;;;;;;28.73;15.97;;;;;;;;;;4915059;28;20043;-79
2021/12/22 08:23:07;;;;;;;23.03;13.93;;;;;;;;;;4912046;28;20044;-79
2021/12/22 08:25:34;;;;;;;26.50;15.40;;;;;;;;;;4889109;29;20039;-79
2021/12/22 08:28:02;;;;;;;23.20;14.47;;;;;;;;;;4916592;28;20181;-79
2021/12/22 08:30:28;;;;;;;58.92;16.65;;;;;;;;;;4911910;28;20058;-79
2021/12/22 08:32:55;;;;;;;30.10;15.53;;;;;;;;;;4896335;28;20097;-79
2021/12/22 08:35:24;;;;;;;29.03;16.23;;;;;;;;;;4914883;28;20043;-78
2021/12/22 08:40:35;;;;;;;27.50;16.20;;;;;;;;;;4903621;29;20142;-79
2021/12/22 08:43:02;;;;;;;25.23;14.03;;;;;;;;;;4897413;29;20047;-79
2021/12/22 08:45:29;;;;;;;26.00;15.43;;;;;;;;;;4913938;28;20082;-78
2021/12/22 08:47:56;;;;;;;24.73;15.57;;;;;;;;;;4913365;28;20061;-78
2021/12/22 08:50:24;;;;;;;30.80;17.33;;;;;;;;;;4910539;28;21241;-79
2021/12/22 08:52:52;;;;;;;25.88;14.95;;;;;;;;;;4923256;29;20043;-79
2021/12/22 08:55:21;;;;;;;24.80;15.93;;;;;;;;;;4931437;28;20186;-79
2021/12/22 08:57:47;;;;;;;27.93;16.27;;;;;;;;;;4926324;28;20053;-79
2021/12/22 09:00:14;;;;;;;30.17;17.00;;;;;;;;;;4886484;28;20047;-79
2021/12/22 09:02:40;;;;;;;29.00;18.13;;;;;;;;;;4889664;28;20077;-79
2021/12/22 09:05:06;;;;;;;25.53;16.33;;;;;;;;;;4920237;28;20203;-80
2021/12/22 09:07:41;;;;;;;25.10;15.90;;;;;;;;;;4924602;28;20046;-79
2021/12/22 09:10:08;;;;;;;25.90;16.43;;;;;;;;;;4918959;28;20066;-80
2021/12/22 09:12:37;;;;;;;27.73;16.40;;;;;;;;;;4936035;28;20071;-79
2021/12/22 09:15:03;;;;;;;22.67;14.00;;;;;;;;;;4894426;28;20039;-81
2021/12/22 09:17:30;;;;;;;28.50;16.13;;;;;;;;;;4937563;28;20031;-81
2021/12/22 09:19:57;;;;;;;23.10;15.47;;;;;;;;;;4922082;28;20122;-80
2021/12/22 09:22:23;;;;;;;25.60;15.27;;;;;;;;;;4914324;28;20131;-81
2021/12/22 09:24:49;;;;;;;26.40;16.07;;;;;;;;;;4894089;29;20122;-81
2021/12/22 09:27:16;;;;;;;25.57;16.87;;;;;;;;;;4934615;28;20098;-80
2021/12/22 09:29:42;;;;;;;28.27;16.50;;;;;;;;;;4891743;29;20046;-81
2021/12/22 09:32:12;;;;;;;28.70;15.77;;;;;;;;;;4916713;28;21895;-80
2021/12/22 09:34:39;;;;;;;27.77;16.20;;;;;;;;;;4915085;29;20051;-81
2021/12/22 09:37:05;;;;;;;25.43;15.73;;;;;;;;;;4902675;28;20502;-80
2021/12/22 09:39:35;;;;;;;26.07;16.23;;;;;;;;;;4929204;28;20075;-81
2021/12/22 09:42:01;;;;;;;25.77;16.03;;;;;;;;;;4930928;28;20052;-81
2021/12/22 09:44:32;;;;;;;24.23;15.47;;;;;;;;;;4907610;28;22585;-80
2021/12/22 09:46:59;;;;;;;28.13;17.90;;;;;;;;;;4912292;29;20052;-80
2021/12/22 09:52:19;;;;;;;26.37;17.33;;;;;;;;;;4903639;28;20426;-78
2021/12/22 09:54:55;;;;;;;25.07;15.63;;;;;;;;;;4915053;28;20055;-81
2021/12/22 09:57:22;;;;;;;23.60;15.87;;;;;;;;;;4889802;28;20039;-80
2021/12/22 09:59:49;;;;;;;22.97;15.63;;;;;;;;;;4934074;28;20098;-80
2021/12/22 10:02:18;;;;;;;25.70;15.93;;;;;;;;;;4916012;28;20174;-80
2021/12/22 10:04:48;;;;;;;23.50;15.43;;;;;;;;;;4931329;28;20044;-80
2021/12/22 10:07:26;;;;;;;22.80;15.27;;;;;;;;;;4929729;28;20103;-80
2021/12/22 10:10:02;;;;;;;22.33;15.43;;;;;;;;;;4924592;28;20036;-81
2021/12/22 10:12:29;;;;;;;23.97;16.47;;;;;;;;;;4937405;28;20105;-81
2021/12/22 10:14:56;;;;;;;25.90;15.70;;;;;;;;;;4911892;28;20055;-80
2021/12/22 10:17:36;;;;;;;23.13;15.47;;;;;;;;;;4923503;28;20052;-81
2021/12/22 10:20:04;;;;;;;21.13;14.32;;;;;;;;;;4887500;28;20072;-81
2021/12/22 10:22:34;;;;;;;23.60;16.00;;;;;;;;;;4903026;28;20446;-81
2021/12/22 10:25:03;;;;;;;20.40;14.43;;;;;;;;;;4916037;29;20050;-81
2021/12/22 10:27:30;;;;;;;22.98;15.07;;;;;;;;;;4934108;28;20055;-81
2021/12/22 10:29:56;;;;;;;24.83;16.60;;;;;;;;;;4903747;29;20054;-81
2021/12/22 10:32:22;;;;;;;23.73;14.52;;;;;;;;;;4920559;28;20039;-81
2021/12/22 10:34:54;;;;;;;20.67;14.83;;;;;;;;;;4922231;28;20057;-82
2021/12/22 10:37:31;;;;;;;19.35;14.48;;;;;;;;;;4895892;28;20466;-81
2021/12/22 10:39:57;;;;;;;18.83;14.35;;;;;;;;;;4915971;28;20047;-81
2021/12/22 10:42:25;;;;;;;18.40;13.30;;;;;;;;;;4906896;28;20066;-81
2021/12/22 10:44:53;;;;;;;16.08;12.35;;;;;;;;;;4909694;29;20411;-81
2021/12/22 10:47:22;;;;;;;15.82;12.70;;;;;;;;;;4907227;28;20045;-81
2021/12/22 10:50:28;;;;;;;15.05;11.93;;;;;;;;;;4893792;29;20562;-82
2021/12/22 10:52:54;;;;;;;15.80;11.88;;;;;;;;;;4928088;29;20043;-82
2021/12/22 10:55:20;;;;;;;15.70;11.18;;;;;;;;;;4908402;28;20051;-81
2021/12/22 10:57:48;;;;;;;18.98;12.23;;;;;;;;;;4927350;28;20061;-81
2021/12/22 11:00:21;;;;;;;16.98;12.02;;;;;;;;;;4907633;28;20051;-81
2021/12/22 11:03:02;;;;;;;17.73;12.82;;;;;;;;;;4903917;29;20162;-81
2021/12/22 11:05:30;;;;;;;18.70;12.80;;;;;;;;;;4936774;28;20110;-81
2021/12/22 11:07:56;;;;;;;18.33;13.40;;;;;;;;;;4927835;28;20103;-81
2021/12/22 11:10:23;;;;;;;20.10;13.45;;;;;;;;;;4891247;28;20059;-81
2021/12/22 11:12:50;;;;;;;16.08;12.68;;;;;;;;;;4919148;28;20051;-81
2021/12/22 11:15:23;;;;;;;18.58;13.40;;;;;;;;;;4896909;28;20066;-82
2021/12/22 11:17:50;;;;;;;19.33;12.57;;;;;;;;;;4910915;28;20474;-81
2021/12/22 11:20:16;;;;;;;18.27;12.88;;;;;;;;;;4917850;28;20388;-81
2021/12/22 11:22:52;;;;;;;17.52;13.13;;;;;;;;;;4905061;28;20382;-81
2021/12/22 11:25:18;;;;;;;20.40;13.07;;;;;;;;;;4905626;28;20044;-81
2021/12/22 11:27:45;;;;;;;20.02;12.65;;;;;;;;;;4926737;29;20046;-81
2021/12/22 11:30:15;;;;;;;19.83;13.15;;;;;;;;;;4921326;28;20050;-81
2021/12/22 11:32:41;;;;;;;18.92;12.18;;;;;;;;;;4908655;28;20046;-81
2021/12/22 11:35:09;;;;;;;17.25;11.40;;;;;;;;;;4937633;28;20372;-81
2021/12/22 11:37:36;;;;;;;18.70;12.27;;;;;;;;;;4932479;28;20050;-81
2021/12/22 11:40:03;;;;;;;16.55;11.80;;;;;;;;;;4937381;28;20047;-83
2021/12/22 11:42:32;;;;;;;16.02;10.95;;;;;;;;;;4914485;28;20107;-82
2021/12/22 11:45:17;;;;;;;18.75;13.00;;;;;;;;;;4916472;28;20063;-81
2021/12/22 11:47:47;;;;;;;15.88;11.68;;;;;;;;;;4912695;28;20043;-82
2021/12/22 11:50:18;;;;;;;17.55;11.30;;;;;;;;;;4901942;28;20063;-82
2021/12/22 11:52:52;;;;;;;17.48;12.00;;;;;;;;;;4903934;28;20040;-82
2021/12/22 11:55:21;;;;;;;15.75;11.88;;;;;;;;;;4900078;28;20403;-82
2021/12/22 11:57:48;;;;;;;15.23;11.70;;;;;;;;;;4901483;28;20134;-82
2021/12/22 12:00:28;;;;;;;15.80;11.85;;;;;;;;;;4881752;28;20511;-81
2021/12/22 12:02:55;;;;;;;15.65;11.70;;;;;;;;;;4901836;28;20386;-82
2021/12/22 12:05:25;;;;;;;16.80;12.02;;;;;;;;;;4908543;28;20121;-82
2021/12/22 12:07:55;;;;;;;16.00;11.75;;;;;;;;;;4903494;28;20071;-82
2021/12/22 12:10:41;;;;;;;18.33;12.32;;;;;;;;;;4900902;28;20054;-81
2021/12/22 12:13:21;;;;;;;16.95;12.23;;;;;;;;;;4885319;28;20061;-81
2021/12/22 12:21:48;;;;;;;16.58;12.15;;;;;;;;;;4932560;28;20126;-85
2021/12/22 12:24:34;;;;;;;21.35;12.43;;;;;;;;;;4926816;28;20138;-86
2021/12/22 12:27:01;;;;;;;16.88;12.30;;;;;;;;;;4931779;28;20501;-86
2021/12/22 12:29:46;;;;;;;19.05;12.95;;;;;;;;;;4906802;28;20051;-84
2021/12/22 12:32:38;;;;;;;16.95;12.50;;;;;;;;;;4929153;28;20074;-85
2021/12/22 12:35:26;;;;;;;15.82;12.05;;;;;;;;;;4909630;28;20050;-86
2021/12/22 12:38:04;;;;;;;16.83;12.20;;;;;;;;;;4917457;28;20048;-86
2021/12/22 12:40:49;;;;;;;18.58;12.85;;;;;;;;;;4892476;28;20081;-87
2021/12/22 12:43:15;;;;;;;19.35;12.30;;;;;;;;;;4910395;28;20082;-84
2021/12/22 12:45:48;;;;;;;26.35;13.80;;;;;;;;;;4904550;28;20102;-84
2021/12/22 12:48:27;;;;;;;19.00;12.73;;;;;;;;;;4885963;28;20133;-84
2021/12/22 12:51:13;;;;;;;18.27;13.07;;;;;;;;;;4901284;28;20043;-85
2021/12/22 12:53:45;;;;;;;18.35;12.82;;;;;;;;;;4930791;28;20592;-84
2021/12/22 12:56:11;;;;;;;21.85;13.85;;;;;;;;;;4911637;28;20574;-83
2021/12/22 12:58:53;;;;;;;18.73;13.90;;;;;;;;;;4929210;28;20581;-85
2021/12/22 13:01:49;;;;;;;20.25;13.27;;;;;;;;;;4925665;28;20407;-84
2021/12/22 13:04:26;;;;;;;19.38;13.90;;;;;;;;;;4909683;28;20051;-85
2021/12/22 13:06:53;;;;;;;21.05;14.13;;;;;;;;;;4933388;28;20047;-86
2021/12/22 13:09:27;;;;;;;19.83;13.32;;;;;;;;;;4906810;28;20079;-85
2021/12/22 13:11:59;;;;;;;19.90;13.95;;;;;;;;;;4914912;28;20130;-84
2021/12/22 13:17:20;;;;;;;19.92;13.02;;;;;;;;;;4910803;28;20090;-80
2021/12/22 13:19:47;;;;;;;19.88;13.77;;;;;;;;;;4898836;29;20043;-79
2021/12/22 13:22:16;;;;;;;19.93;14.07;;;;;;;;;;4880073;28;20075;-80
2021/12/22 13:24:43;;;;;;;18.05;13.48;;;;;;;;;;4916204;28;20063;-80
2021/12/22 13:27:09;;;;;;;24.50;14.13;;;;;;;;;;4905710;28;20486;-80
2021/12/22 13:29:36;;;;;;;20.75;13.73;;;;;;;;;;4932914;28;20101;-79
2021/12/22 13:32:11;;;;;;;21.05;14.40;;;;;;;;;;4931238;28;20122;-80
2021/12/22 13:34:44;;;;;;;25.25;14.15;;;;;;;;;;4902012;28;20482;-79
2021/12/22 13:37:10;;;;;;;21.90;14.00;;;;;;;;;;4899561;28;20137;-80
2021/12/22 13:39:45;;;;;;;21.42;14.27;;;;;;;;;;4903397;28;20059;-79
2021/12/22 13:42:12;;;;;;;22.73;14.48;;;;;;;;;;4900684;28;20059;-79
2021/12/22 13:44:39;;;;;;;18.55;13.80;;;;;;;;;;4921231;28;20399;-78
2021/12/22 13:47:06;;;;;;;22.42;14.10;;;;;;;;;;4900550;29;20035;-79
2021/12/22 13:49:33;;;;;;;22.42;14.18;;;;;;;;;;4919547;28;20117;-79
2021/12/22 13:51:59;;;;;;;19.58;14.52;;;;;;;;;;4886254;28;20063;-80
2021/12/22 13:54:28;;;;;;;23.05;14.93;;;;;;;;;;4899164;28;21381;-79
2021/12/22 13:57:08;;;;;;;22.63;14.65;;;;;;;;;;4926105;28;20059;-79
2021/12/22 13:59:37;;;;;;;23.27;14.55;;;;;;;;;;4908601;28;20042;-80
2021/12/22 14:02:03;;;;;;;23.88;15.40;;;;;;;;;;4921324;28;20043;-80
2021/12/22 14:04:32;;;;;;;20.40;14.35;;;;;;;;;;4902643;29;20138;-80
2021/12/22 14:07:08;;;;;;;19.55;13.95;;;;;;;;;;4906458;28;20043;-80
2021/12/22 14:09:41;;;;;;;19.70;14.95;;;;;;;;;;4904778;28;20130;-80
2021/12/22 14:12:09;;;;;;;21.85;14.32;;;;;;;;;;4898097;28;20414;-81
2021/12/22 14:14:46;;;;;;;21.02;14.45;;;;;;;;;;4930650;28;20070;-81
2021/12/22 14:17:23;;;;;;;24.85;15.60;;;;;;;;;;4904751;28;20150;-80
2021/12/22 14:19:53;;;;;;;23.05;15.13;;;;;;;;;;4891298;28;20047;-80
2021/12/22 14:22:22;;;;;;;24.15;15.65;;;;;;;;;;4916385;28;20390;-80
2021/12/22 14:25:09;;;;;;;24.70;15.40;;;;;;;;;;4904109;28;20383;-81
2021/12/22 14:27:57;;;;;;;24.08;15.15;;;;;;;;;;4916452;28;20055;-82
2021/12/22 14:30:42;;;;;;;27.38;16.45;;;;;;;;;;4921681;28;20491;-82
2021/12/22 14:33:15;;;;;;;24.42;16.30;;;;;;;;;;4897650;28;20272;-81
2021/12/22 14:36:08;;;;;;;23.45;16.00;;;;;;;;;;4934229;28;20043;-80
2021/12/22 14:38:37;;;;;;;23.40;16.15;;;;;;;;;;4909042;28;20471;-80
2021/12/22 14:41:12;;;;;;;22.67;15.13;;;;;;;;;;4907172;28;20415;-81
2021/12/22 14:43:56;;;;;;;24.80;15.25;;;;;;;;;;4934559;28;20074;-81
2021/12/22 14:46:35;;;;;;;23.33;14.88;;;;;;;;;;4901210;28;20054;-81
2021/12/22 14:49:02;;;;;;;23.65;15.02;;;;;;;;;;4905885;28;20098;-81
2021/12/22 14:51:30;;;;;;;23.20;15.57;;;;;;;;;;4904313;28;20052;-80
2021/12/22 14:54:16;;;;;;;21.58;15.48;;;;;;;;;;4921383;28;20139;-81
2021/12/22 14:56:44;;;;;;;21.33;14.55;;;;;;;;;;4909773;28;20043;-81
2021/12/22 14:59:11;;;;;;;23.88;15.80;;;;;;;;;;4887653;28;20244;-80
2021/12/22 15:01:38;;;;;;;24.85;15.98;;;;;;;;;;4920860;28;20141;-81
2021/12/22 15:04:08;;;;;;;22.83;15.50;;;;;;;;;;4913662;28;20043;-81
2021/12/22 15:06:35;;;;;;;26.30;16.33;;;;;;;;;;4894396;28;20039;-81